Time;durP1;ratioP1;P1;durP2;ratioP2;P2;SDS_P1;SDS_P2;PMS_P1;PMS_P2;Temp;Humidity;BMP_temperature;BMP_pressure;BME280_temperature;BME280_humidity;BME280_pressure;Samples;Min_cycle;Max_cycle;Signal;HPM_P1;HPM_P2
2022/10/02 00:01:32;;;;;;;5.23;1.90;;;17.20;87.40;;;-142.21;100.00;112049.66;5057557;28;20550;-70
2022/10/02 00:04:03;;;;;;;4.40;1.80;;;17.20;87.70;;;-142.21;100.00;112049.66;5050409;28;20471;-70
2022/10/02 00:06:42;;;;;;;5.00;1.80;;;17.30;87.90;;;-142.21;100.00;112049.66;5053009;28;20527;-69
2022/10/02 00:09:22;;;;;;;6.00;2.00;;;17.30;87.50;;;-142.21;100.00;112049.66;5067860;28;20439;-70
2022/10/02 00:11:56;;;;;;;3.77;1.90;;;17.40;87.20;;;-142.21;100.00;112049.66;5063055;28;20527;-70
2022/10/02 00:14:31;;;;;;;3.40;2.20;;;17.40;87.00;;;-142.21;100.00;112049.66;5050982;28;20428;-69
2022/10/02 00:17:01;;;;;;;4.43;1.90;;;17.40;87.20;;;-142.21;100.00;112049.66;5049936;28;20864;-70
2022/10/02 00:19:30;;;;;;;5.37;1.80;;;17.40;87.40;;;-142.21;100.00;112049.66;5050572;28;20524;-72
2022/10/02 00:22:26;;;;;;;6.30;2.37;;;17.30;87.50;;;-142.21;100.00;112049.66;5006659;28;20440;-70
2022/10/02 00:25:08;;;;;;;4.50;1.60;;;17.30;87.50;;;-142.21;100.00;112049.66;5051740;28;20474;-71
2022/10/02 00:28:12;;;;;;;4.60;2.10;;;17.30;87.00;;;-142.21;100.00;112049.66;5054344;28;20432;-70
2022/10/02 00:31:02;;;;;;;6.53;1.80;;;17.40;87.30;;;-142.21;100.00;112049.66;5052572;28;20546;-71
2022/10/02 00:33:46;;;;;;;4.10;1.70;;;17.30;87.00;;;-142.21;100.00;112049.66;5054201;28;20440;-70
2022/10/02 00:36:34;;;;;;;2.70;1.60;;;17.30;87.00;;;-142.21;100.00;112049.66;5017453;28;20715;-69
2022/10/02 00:39:15;;;;;;;3.47;1.57;;;17.20;87.20;;;-142.21;100.00;112049.66;5052723;28;20436;-71
2022/10/02 00:42:33;;;;;;;4.63;2.10;;;17.20;87.00;;;-142.21;100.00;112049.66;5053672;28;20532;-70
2022/10/02 00:46:11;;;;;;;3.37;2.00;;;17.30;87.00;;;-142.21;100.00;112049.66;5043873;28;20484;-70
2022/10/02 00:49:07;;;;;;;7.37;2.10;;;17.20;87.30;;;-142.21;100.00;112049.66;4984274;28;20439;-70
2022/10/02 00:52:07;;;;;;;3.20;1.70;;;17.30;87.00;;;-142.21;100.00;112049.66;5057433;28;20443;-70
2022/10/02 00:55:43;;;;;;;2.83;1.70;;;17.20;87.00;;;-142.21;100.00;112049.66;5055354;28;20528;-70
2022/10/02 00:58:38;;;;;;;2.93;1.90;;;17.20;87.40;;;-142.21;100.00;112049.66;4988650;28;20616;-69
2022/10/02 01:01:13;;;;;;;3.60;2.03;;;17.20;87.30;;;-142.21;100.00;112049.66;5053354;28;20459;-71
2022/10/02 01:03:42;;;;;;;4.83;1.80;;;17.20;86.90;;;-142.21;100.00;112049.66;5053786;28;20566;-70
2022/10/02 01:06:10;;;;;;;4.23;2.03;;;17.30;86.90;;;-142.21;100.00;112049.66;5052941;28;20488;-70
2022/10/02 01:08:39;;;;;;;9.03;1.93;;;17.30;86.80;;;-142.21;100.00;112049.66;5052567;28;20459;-69
2022/10/02 01:11:08;;;;;;;4.23;1.60;;;17.40;86.70;;;-142.21;100.00;112049.66;5053560;28;20452;-69
2022/10/02 01:13:35;;;;;;;6.33;1.93;;;17.40;86.50;;;-142.21;100.00;112049.66;5053918;28;20448;-70
2022/10/02 01:16:04;;;;;;;4.47;2.07;;;17.40;86.40;;;-142.21;100.00;112049.66;5052779;28;20443;-70
2022/10/02 01:18:31;;;;;;;4.30;2.00;;;17.40;86.10;;;-142.21;100.00;112049.66;5053378;28;20443;-70
2022/10/02 01:21:08;;;;;;;6.40;2.47;;;17.40;86.20;;;-142.21;100.00;112049.66;5053902;28;20478;-70
2022/10/02 01:23:48;;;;;;;3.87;1.80;;;17.40;85.80;;;-142.21;100.00;112049.66;5053435;28;20432;-71
2022/10/02 01:26:17;;;;;;;4.20;1.93;;;17.40;86.00;;;-142.21;100.00;112049.66;5052948;28;20472;-70
2022/10/02 01:28:44;;;;;;;3.90;2.10;;;17.40;86.00;;;-142.21;100.00;112049.66;5033362;28;20948;-70
2022/10/02 01:31:13;;;;;;;5.17;2.00;;;17.40;85.90;;;-142.21;100.00;112049.66;5047580;28;20454;-70
2022/10/02 01:33:43;;;;;;;3.77;1.80;;;17.40;86.60;;;-142.21;100.00;112049.66;5053439;28;20879;-71
2022/10/02 01:36:11;;;;;;;4.10;1.70;;;17.40;85.60;;;-142.21;100.00;112049.66;5051873;28;20498;-70
2022/10/02 01:38:41;;;;;;;5.83;1.73;;;17.40;85.80;;;-142.21;100.00;112049.66;5068795;28;20450;-70
2022/10/02 01:41:10;;;;;;;4.97;1.90;;;17.40;85.70;;;-142.21;100.00;112049.66;5062265;28;20444;-69
2022/10/02 01:43:45;;;;;;;3.67;1.80;;;17.40;85.60;;;-142.21;100.00;112049.66;5068010;28;20456;-70
2022/10/02 01:46:31;;;;;;;9.20;1.83;;;17.50;85.50;;;-142.21;100.00;112049.66;5067152;28;20494;-69
2022/10/02 01:49:44;;;;;;;6.57;1.97;;;17.50;85.10;;;-142.21;100.00;112049.66;5053176;28;20436;-71
2022/10/02 01:52:32;;;;;;;4.03;1.93;;;17.60;85.30;;;-142.21;100.00;112049.66;5052105;28;20483;-70
2022/10/02 01:55:21;;;;;;;8.73;2.10;;;17.60;84.70;;;-142.21;100.00;112049.66;5053166;28;20436;-70
2022/10/02 01:58:10;;;;;;;6.60;2.07;;;17.70;84.80;;;-142.21;100.00;112049.66;5053104;28;20491;-71
2022/10/02 02:01:02;;;;;;;5.47;1.80;;;17.70;85.20;;;-142.21;100.00;112049.66;5052165;28;20966;-70
2022/10/02 02:03:43;;;;;;;4.63;2.00;;;17.60;84.40;;;-142.21;100.00;112049.66;5032805;28;20480;-69
2022/10/02 02:06:24;;;;;;;7.47;1.83;;;17.70;84.30;;;-142.21;100.00;112049.66;5045402;28;21037;-69
2022/10/02 02:09:06;;;;;;;3.20;1.67;;;17.70;84.40;;;-142.21;100.00;112049.66;5052499;28;20441;-70
2022/10/02 02:11:38;;;;;;;5.30;2.10;;;17.70;84.10;;;-142.21;100.00;112049.66;5052195;28;20943;-70
2022/10/02 02:14:14;;;;;;;3.60;2.20;;;17.70;84.10;;;-142.21;100.00;112049.66;5051911;28;20440;-69
2022/10/02 02:16:48;;;;;;;5.90;2.10;;;17.70;83.90;;;-142.21;100.00;112049.66;5052301;28;20432;-71
2022/10/02 02:19:21;;;;;;;7.37;2.07;;;17.70;84.10;;;-142.21;100.00;112049.66;5051615;28;20970;-71
2022/10/02 02:22:01;;;;;;;5.63;2.00;;;17.70;84.10;;;-142.21;100.00;112049.66;5058716;28;20432;-71
2022/10/02 02:24:36;;;;;;;6.93;2.00;;;17.70;84.10;;;-142.21;100.00;112049.66;5016615;28;20445;-70
2022/10/02 02:27:09;;;;;;;6.57;2.10;;;17.60;84.00;;;-142.21;100.00;112049.66;5041620;28;20950;-70
2022/10/02 02:29:39;;;;;;;5.43;2.23;;;17.70;84.80;;;-142.21;100.00;112049.66;5052009;28;20800;-70
2022/10/02 02:32:16;;;;;;;5.93;2.00;;;17.70;83.80;;;-142.21;100.00;112049.66;5051488;28;20451;-70
2022/10/02 02:34:51;;;;;;;3.63;1.70;;;17.70;83.70;;;-142.21;100.00;112049.66;5052334;28;20511;-70
2022/10/02 02:37:24;;;;;;;9.50;2.10;;;17.70;84.10;;;-142.21;100.00;112049.66;5031688;28;20944;-69
2022/10/02 02:39:57;;;;;;;8.83;2.10;;;17.60;83.70;;;-142.21;100.00;112049.66;5032184;28;20429;-71
2022/10/02 02:42:31;;;;;;;4.73;1.80;;;17.60;83.80;;;-142.21;100.00;112049.66;5051308;28;20424;-70
2022/10/02 02:45:04;;;;;;;6.97;2.00;;;17.70;83.90;;;-142.21;100.00;112049.66;5051849;28;20477;-70
2022/10/02 02:47:41;;;;;;;6.57;2.23;;;17.70;83.70;;;-142.21;100.00;112049.66;5051269;28;20959;-70
2022/10/02 02:50:16;;;;;;;5.20;1.80;;;17.70;83.50;;;-142.21;100.00;112049.66;5051610;28;20442;-71
2022/10/02 02:52:51;;;;;;;6.50;1.80;;;17.80;83.60;;;-142.21;100.00;112049.66;5051723;28;20439;-69
2022/10/02 02:55:23;;;;;;;5.77;2.37;;;17.80;83.40;;;-142.21;100.00;112049.66;5051257;28;20435;-70
2022/10/02 02:57:58;;;;;;;5.70;2.10;;;17.80;83.20;;;-142.21;100.00;112049.66;5051543;28;20464;-71
2022/10/02 03:00:25;;;;;;;4.97;1.83;;;17.90;83.00;;;-142.21;100.00;112049.66;5050547;28;20947;-70
2022/10/02 03:02:54;;;;;;;3.10;1.77;;;17.80;82.80;;;-142.21;100.00;112049.66;5051451;28;20999;-70
2022/10/02 03:05:24;;;;;;;8.70;2.10;;;17.80;83.10;;;-142.21;100.00;112049.66;5043920;28;20488;-70
2022/10/02 03:07:55;;;;;;;6.43;2.67;;;17.70;83.20;;;-142.21;100.00;112049.66;5044141;28;20436;-70
2022/10/02 03:10:41;;;;;;;5.10;2.10;;;17.80;83.30;;;-142.21;100.00;112049.66;5050727;28;20984;-70
2022/10/02 03:13:28;;;;;;;5.87;1.80;;;17.90;83.00;;;-142.21;100.00;112049.66;5050743;28;20695;-71
2022/10/02 03:16:17;;;;;;;5.97;2.03;;;17.80;83.80;;;-142.21;100.00;112049.66;5051245;28;20432;-70
2022/10/02 03:19:11;;;;;;;4.73;2.20;;;17.90;83.80;;;-142.21;100.00;112049.66;5042904;28;20437;-70
2022/10/02 03:21:48;;;;;;;5.23;1.80;;;18.00;83.70;;;-142.21;100.00;112049.66;5053980;28;20516;-69
2022/10/02 03:24:23;;;;;;;4.67;2.23;;;18.00;82.60;;;-142.21;100.00;112049.66;5070874;28;20908;-70
2022/10/02 03:27:00;;;;;;;7.83;2.57;;;18.00;82.50;;;-142.21;100.00;112049.66;5070963;28;20470;-71
2022/10/02 03:29:35;;;;;;;6.80;2.23;;;18.00;82.40;;;-142.21;100.00;112049.66;5070743;28;20430;-70
2022/10/02 03:32:08;;;;;;;3.00;1.70;;;18.10;82.40;;;-142.21;100.00;112049.66;5071748;28;20446;-70
2022/10/02 03:34:39;;;;;;;6.00;1.90;;;18.10;82.40;;;-142.21;100.00;112049.66;5064641;28;20440;-70
2022/10/02 03:37:08;;;;;;;8.00;2.10;;;18.10;82.20;;;-142.21;100.00;112049.66;5071335;28;20436;-71
2022/10/02 03:39:35;;;;;;;5.03;1.70;;;18.10;82.20;;;-142.21;100.00;112049.66;5071369;28;20446;-70
2022/10/02 03:42:02;;;;;;;8.80;2.20;;;18.10;82.10;;;-142.21;100.00;112049.66;5071144;28;20461;-71
2022/10/02 03:44:29;;;;;;;4.50;1.80;;;18.10;82.10;;;-142.21;100.00;112049.66;5070850;28;20448;-70
2022/10/02 03:46:56;;;;;;;7.27;2.37;;;18.10;82.60;;;-142.21;100.00;112049.66;5071093;28;20479;-70
2022/10/02 03:49:23;;;;;;;8.07;2.20;;;18.00;82.20;;;-142.21;100.00;112049.66;5056414;28;20780;-70
2022/10/02 03:51:51;;;;;;;6.87;2.30;;;17.90;82.60;;;-142.21;100.00;112049.66;5059571;28;20531;-70
2022/10/02 03:54:21;;;;;;;5.40;1.90;;;17.90;82.90;;;-142.21;100.00;112049.66;5050601;28;20539;-71
2022/10/02 03:56:57;;;;;;;6.10;2.00;;;17.90;82.90;;;-142.21;100.00;112049.66;5051177;28;20456;-70
2022/10/02 03:59:44;;;;;;;3.47;2.33;;;18.00;83.00;;;-142.21;100.00;112049.66;5051226;28;20431;-69
2022/10/02 04:02:23;;;;;;;5.00;2.00;;;18.00;83.30;;;-142.21;100.00;112049.66;5053926;28;20490;-69
2022/10/02 04:04:56;;;;;;;4.00;1.70;;;18.00;83.20;;;-142.21;100.00;112049.66;5062652;28;20435;-69
2022/10/02 04:07:33;;;;;;;6.50;2.37;;;18.00;83.20;;;-142.21;100.00;112049.66;5055830;28;20447;-69
2022/10/02 04:10:25;;;;;;;6.80;1.77;;;18.00;83.50;;;-142.21;100.00;112049.66;5055133;28;20424;-70
2022/10/02 04:13:04;;;;;;;4.27;1.70;;;17.90;83.40;;;-142.21;100.00;112049.66;5055385;28;20805;-70
2022/10/02 04:15:49;;;;;;;3.43;1.80;;;18.00;83.90;;;-142.21;100.00;112049.66;5057458;28;20518;-72
2022/10/02 04:18:24;;;;;;;7.30;2.23;;;17.90;83.80;;;-142.21;100.00;112049.66;5069306;28;20437;-70
2022/10/02 04:20:56;;;;;;;5.60;1.70;;;17.90;83.90;;;-142.21;100.00;112049.66;5063088;28;20531;-71
2022/10/02 04:23:33;;;;;;;4.60;2.00;;;17.90;84.00;;;-142.21;100.00;112049.66;5055132;28;20440;-70
2022/10/02 04:26:07;;;;;;;6.50;1.90;;;17.80;84.20;;;-142.21;100.00;112049.66;5053953;28;20470;-70
2022/10/02 04:28:44;;;;;;;7.13;2.10;;;17.70;84.60;;;-142.21;100.00;112049.66;5020349;28;20558;-70
2022/10/02 04:31:13;;;;;;;3.77;1.70;;;17.70;85.00;;;-142.21;100.00;112049.66;5053833;28;20452;-70
2022/10/02 04:33:40;;;;;;;9.77;2.40;;;17.70;85.00;;;-142.21;100.00;112049.66;5053144;28;20444;-70
2022/10/02 04:36:30;;;;;;;5.73;2.17;;;17.70;85.00;;;-142.21;100.00;112049.66;5055557;28;20436;-69
2022/10/02 04:39:43;;;;;;;3.53;1.70;;;17.70;85.60;;;-142.21;100.00;112049.66;5051856;28;20451;-70
2022/10/02 04:42:39;;;;;;;6.20;1.87;;;17.60;86.00;;;-142.21;100.00;112049.66;5053158;28;20467;-71
2022/10/02 04:45:29;;;;;;;7.83;2.03;;;17.60;86.70;;;-142.21;100.00;112049.66;5034596;28;20433;-70
2022/10/02 04:48:49;;;;;;;3.90;1.90;;;17.30;87.50;;;-142.21;100.00;112049.66;5040077;28;20933;-70
2022/10/02 04:51:41;;;;;;;5.83;2.00;;;17.30;88.50;;;-142.21;100.00;112049.66;5044252;28;20440;-72
2022/10/02 04:54:41;;;;;;;6.30;1.97;;;17.30;88.60;;;-142.21;100.00;112049.66;5073624;28;20434;-70
2022/10/02 04:57:44;;;;;;;4.77;1.90;;;17.20;88.80;;;-142.21;100.00;112049.66;5040690;28;20464;-70
2022/10/02 05:00:15;;;;;;;5.80;1.93;;;17.20;89.20;;;-142.21;100.00;112049.66;5053331;28;20443;-69
2022/10/02 05:03:05;;;;;;;5.87;2.13;;;17.30;88.80;;;-142.21;100.00;112049.66;5053468;28;20511;-70
2022/10/02 05:05:55;;;;;;;6.87;2.33;;;17.30;88.90;;;-142.21;100.00;112049.66;5064606;28;20468;-70
2022/10/02 05:09:03;;;;;;;9.27;2.77;;;17.30;88.70;;;-142.21;100.00;112049.66;5053066;28;20536;-70
2022/10/02 05:12:03;;;;;;;5.77;2.00;;;17.30;88.90;;;-142.21;100.00;112049.66;5052012;28;20446;-71
2022/10/02 05:15:12;;;;;;;6.30;2.10;;;17.40;89.80;;;-142.21;100.00;112049.66;5033265;28;20982;-71
2022/10/02 05:17:58;;;;;;;5.53;2.27;;;17.40;88.90;;;-142.21;100.00;112049.66;5051993;28;20440;-70
2022/10/02 05:21:12;;;;;;;4.97;1.83;;;17.40;88.80;;;-142.21;100.00;112049.66;5055884;28;20436;-70
2022/10/02 05:24:06;;;;;;;6.90;2.10;;;17.40;89.10;;;-142.21;100.00;112049.66;5036723;28;20456;-71
2022/10/02 05:27:10;;;;;;;6.13;2.00;;;17.30;89.10;;;-142.21;100.00;112049.66;5052518;28;20468;-71
2022/10/02 05:30:06;;;;;;;8.37;2.70;;;17.30;89.40;;;-142.21;100.00;112049.66;5053340;28;20436;-71
2022/10/02 05:33:15;;;;;;;4.00;2.13;;;17.20;89.90;;;-142.21;100.00;112049.66;5038043;28;20821;-71
2022/10/02 05:36:30;;;;;;;4.27;2.20;;;17.30;89.90;;;-142.21;100.00;112049.66;5019435;28;20454;-71
2022/10/02 05:39:07;;;;;;;5.77;2.00;;;17.30;89.90;;;-142.21;100.00;112049.66;5052885;28;20939;-71
2022/10/02 05:41:48;;;;;;;4.63;2.17;;;17.30;90.20;;;-142.21;100.00;112049.66;5052635;28;20440;-71
2022/10/02 05:44:24;;;;;;;5.00;2.00;;;17.30;89.70;;;-142.21;100.00;112049.66;5052770;28;20467;-71
2022/10/02 05:47:00;;;;;;;4.13;1.90;;;17.30;89.20;;;-142.21;100.00;112049.66;5052988;28;20646;-71
2022/10/02 05:49:34;;;;;;;7.67;2.33;;;17.30;89.20;;;-142.21;100.00;112049.66;5056256;28;20521;-71
2022/10/02 05:52:12;;;;;;;5.33;1.93;;;17.30;89.10;;;-142.21;100.00;112049.66;5044678;28;20432;-71
2022/10/02 05:54:51;;;;;;;4.53;1.87;;;17.30;89.20;;;-142.21;100.00;112049.66;5052742;28;20896;-73
2022/10/02 05:57:28;;;;;;;2.07;1.60;;;17.30;89.10;;;-142.21;100.00;112049.66;5052246;28;20823;-71
2022/10/02 06:00:08;;;;;;;5.83;2.10;;;17.30;89.00;;;-142.21;100.00;112049.66;5052969;28;20467;-71
2022/10/02 06:02:47;;;;;;;5.37;1.87;;;17.30;89.40;;;-142.21;100.00;112049.66;5051479;28;20570;-71
2022/10/02 06:05:21;;;;;;;4.13;1.90;;;17.20;89.40;;;-142.21;100.00;112049.66;5045298;28;20463;-71
2022/10/02 06:07:56;;;;;;;4.43;2.10;;;17.20;89.60;;;-142.21;100.00;112049.66;5053691;28;20436;-71
2022/10/02 06:10:30;;;;;;;10.90;2.37;;;17.30;89.80;;;-142.21;100.00;112049.66;5032166;28;20433;-72
2022/10/02 06:13:04;;;;;;;4.60;1.90;;;17.30;89.90;;;-142.21;100.00;112049.66;5032756;28;20421;-71
2022/10/02 06:15:46;;;;;;;5.40;1.93;;;17.20;90.30;;;-142.21;100.00;112049.66;5034425;28;20433;-71
2022/10/02 06:18:22;;;;;;;5.37;1.87;;;17.20;90.00;;;-142.21;100.00;112049.66;5052080;28;20532;-72
2022/10/02 06:20:58;;;;;;;4.30;1.97;;;17.20;90.00;;;-142.21;100.00;112049.66;5052034;28;20445;-71
2022/10/02 06:23:32;;;;;;;5.73;2.20;;;17.30;90.00;;;-142.21;100.00;112049.66;5052130;28;20440;-71
2022/10/02 06:26:06;;;;;;;5.87;1.77;;;17.30;89.60;;;-142.21;100.00;112049.66;5052363;28;20472;-72
2022/10/02 06:28:40;;;;;;;7.57;2.10;;;17.30;89.50;;;-142.21;100.00;112049.66;5051240;28;20443;-71
2022/10/02 06:31:20;;;;;;;3.33;1.80;;;17.30;89.60;;;-142.21;100.00;112049.66;5052262;28;20456;-70
2022/10/02 06:33:47;;;;;;;4.10;2.00;;;17.40;89.40;;;-142.21;100.00;112049.66;5051644;28;20447;-71
2022/10/02 06:36:46;;;;;;;4.73;1.90;;;17.30;89.30;;;-142.21;100.00;112049.66;5051731;28;20444;-71
2022/10/02 06:39:39;;;;;;;4.23;2.00;;;17.30;89.40;;;-142.21;100.00;112049.66;5067286;28;20436;-72
2022/10/02 06:42:22;;;;;;;4.60;1.73;;;17.20;89.30;;;-142.21;100.00;112049.66;5051042;28;20437;-70
2022/10/02 06:45:03;;;;;;;3.90;1.60;;;17.30;90.10;;;-142.21;100.00;112049.66;5015775;28;20440;-72
2022/10/02 06:47:58;;;;;;;4.17;2.13;;;17.30;89.40;;;-142.21;100.00;112049.66;5051021;28;20489;-71
2022/10/02 06:50:42;;;;;;;5.27;2.07;;;17.30;89.40;;;-142.21;100.00;112049.66;5038655;28;20453;-71
2022/10/02 06:53:28;;;;;;;3.77;1.80;;;17.40;89.10;;;-142.21;100.00;112049.66;5054351;28;20446;-70
2022/10/02 06:56:08;;;;;;;5.00;2.03;;;17.30;88.90;;;-142.21;100.00;112049.66;5052029;28;20439;-70
2022/10/02 06:58:54;;;;;;;6.13;2.20;;;17.30;88.80;;;-142.21;100.00;112049.66;5052794;28;20487;-71
2022/10/02 07:01:41;;;;;;;6.60;1.80;;;17.30;89.10;;;-142.21;100.00;112049.66;5050598;28;20488;-71
2022/10/02 07:04:41;;;;;;;5.73;2.17;;;17.30;89.30;;;-142.21;100.00;112049.66;5050153;28;20523;-71
2022/10/02 07:07:29;;;;;;;5.60;1.97;;;17.30;89.30;;;-142.21;100.00;112049.66;5050087;28;20975;-70
2022/10/02 07:10:21;;;;;;;4.13;2.10;;;17.30;89.00;;;-142.21;100.00;112049.66;5051843;28;20440;-71
2022/10/02 07:13:26;;;;;;;6.13;2.80;;;17.30;88.90;;;-142.21;100.00;112049.66;5043270;28;20532;-71
2022/10/02 07:16:46;;;;;;;2.67;2.00;;;17.40;89.00;;;-142.21;100.00;112049.66;5051144;28;20498;-71
2022/10/02 07:19:45;;;;;;;1.93;1.70;;;17.40;89.10;;;-142.21;100.00;112049.66;5037684;28;20444;-70
2022/10/02 07:22:38;;;;;;;2.50;1.43;;;17.30;89.30;;;-142.21;100.00;112049.66;5045733;28;20934;-71
2022/10/02 07:25:42;;;;;;;4.33;1.57;;;17.40;89.30;;;-142.21;100.00;112049.66;5051595;28;20940;-71
2022/10/02 07:28:25;;;;;;;3.17;1.50;;;17.30;89.30;;;-142.21;100.00;112049.66;5051225;28;20467;-71
2022/10/02 07:31:03;;;;;;;3.93;1.70;;;17.30;89.50;;;-142.21;100.00;112049.66;5015951;28;20539;-71
2022/10/02 07:33:52;;;;;;;4.53;2.17;;;17.30;89.10;;;-142.21;100.00;112049.66;5039251;28;20908;-70
2022/10/02 07:36:38;;;;;;;5.60;1.67;;;17.30;89.10;;;-142.21;100.00;112049.66;5051025;28;20511;-71
2022/10/02 07:39:24;;;;;;;2.33;1.57;;;17.30;89.10;;;-142.21;100.00;112049.66;5031897;28;20859;-71
2022/10/02 07:42:21;;;;;;;3.57;1.50;;;17.30;89.10;;;-142.21;100.00;112049.66;5003623;28;20515;-71
2022/10/02 07:45:27;;;;;;;2.40;1.47;;;17.30;89.50;;;-142.21;100.00;112049.66;5071215;28;20510;-70
2022/10/02 07:48:20;;;;;;;4.07;1.93;;;17.20;89.60;;;-142.21;100.00;112049.66;5070873;28;20468;-71
2022/10/02 07:51:45;;;;;;;3.57;1.70;;;17.20;90.00;;;-142.21;100.00;112049.66;5053425;28;20436;-71
2022/10/02 07:54:16;;;;;;;3.10;1.80;;;17.30;89.50;;;-142.21;100.00;112049.66;5050717;28;20497;-70
2022/10/02 07:56:48;;;;;;;3.53;1.70;;;17.20;89.50;;;-142.21;100.00;112049.66;5053479;28;20459;-70
2022/10/02 07:59:18;;;;;;;3.53;1.80;;;17.20;89.30;;;-142.21;100.00;112049.66;5072386;28;20423;-69
2022/10/02 08:01:49;;;;;;;4.13;1.90;;;17.20;89.50;;;-142.21;100.00;112049.66;5072604;28;21047;-72
2022/10/02 08:04:29;;;;;;;2.47;1.80;;;17.20;89.70;;;-142.21;100.00;112049.66;5059127;28;20944;-72
2022/10/02 08:07:02;;;;;;;2.50;1.70;;;17.30;89.40;;;-142.21;100.00;112049.66;5051151;28;20471;-70
2022/10/02 08:09:37;;;;;;;4.10;1.67;;;17.20;89.50;;;-142.21;100.00;112049.66;5050394;28;20889;-71
2022/10/02 08:12:15;;;;;;;2.80;1.53;;;17.20;89.50;;;-142.21;100.00;112049.66;5051323;28;20474;-70
2022/10/02 08:14:47;;;;;;;4.03;1.53;;;17.20;89.40;;;-142.21;100.00;112049.66;5049991;28;20448;-71
2022/10/02 08:17:28;;;;;;;3.47;1.60;;;17.20;89.10;;;-142.21;100.00;112049.66;5050359;28;20861;-71
2022/10/02 08:20:03;;;;;;;5.37;1.93;;;17.20;89.70;;;-142.21;100.00;112049.66;5050576;28;20516;-71
2022/10/02 08:22:37;;;;;;;2.03;1.53;;;17.30;89.50;;;-142.21;100.00;112049.66;5050318;28;20435;-72
2022/10/02 08:25:18;;;;;;;3.63;1.83;;;17.40;89.50;;;-142.21;100.00;112049.66;5050877;28;20459;-71
2022/10/02 08:27:53;;;;;;;3.03;1.80;;;17.40;89.50;;;-142.21;100.00;112049.66;5049109;28;20467;-70
2022/10/02 08:30:20;;;;;;;2.80;1.60;;;17.50;89.40;;;-142.21;100.00;112049.66;5051325;28;20456;-71
2022/10/02 08:32:48;;;;;;;2.53;1.87;;;17.60;89.30;;;-142.21;100.00;112049.66;5050442;28;20535;-71
2022/10/02 08:35:18;;;;;;;2.93;2.00;;;17.60;89.00;;;-142.21;100.00;112049.66;5053227;28;20979;-71
2022/10/02 08:38:11;;;;;;;2.87;1.90;;;17.60;88.90;;;-142.21;100.00;112049.66;5062181;28;20433;-71
2022/10/02 08:41:47;;;;;;;3.33;1.63;;;17.60;88.70;;;-142.21;100.00;112049.66;5055747;28;20531;-70
2022/10/02 08:45:06;;;;;;;3.37;1.60;;;17.70;89.50;;;-142.21;100.00;112049.66;5038472;28;20494;-70
2022/10/02 08:48:38;;;;;;;3.17;2.07;;;17.70;88.70;;;-142.21;100.00;112049.66;5053401;28;20479;-71
2022/10/02 08:52:03;;;;;;;3.70;1.87;;;17.70;88.80;;;-142.21;100.00;112049.66;5053952;28;20444;-71
2022/10/02 08:55:12;;;;;;;3.70;2.00;;;17.70;89.50;;;-142.21;100.00;112049.66;5038268;28;20462;-71
2022/10/02 08:58:17;;;;;;;3.77;2.30;;;17.70;88.50;;;-142.21;100.00;112049.66;5057955;28;20459;-72
2022/10/02 09:01:05;;;;;;;4.23;2.50;;;17.70;88.30;;;-142.21;100.00;112049.66;5034097;28;20876;-71
2022/10/02 09:04:50;;;;;;;3.03;2.27;;;17.80;88.40;;;-142.21;100.00;112049.66;5051456;28;20490;-71
2022/10/02 09:08:07;;;;;;;3.00;2.33;;;17.80;88.40;;;-142.21;100.00;112049.66;5036245;28;20479;-71
2022/10/02 09:11:23;;;;;;;2.47;1.80;;;17.80;88.30;;;-142.21;100.00;112049.66;5051322;28;20460;-71
2022/10/02 09:14:27;;;;;;;1.93;1.80;;;17.80;87.50;;;-142.21;100.00;112049.66;5050802;28;20453;-71
2022/10/02 09:17:19;;;;;;;2.67;1.90;;;17.70;88.10;;;-142.21;100.00;112049.66;5046567;28;20440;-70
2022/10/02 09:20:12;;;;;;;1.80;1.60;;;17.80;88.70;;;-142.21;100.00;112049.66;5052917;28;20455;-71
2022/10/02 09:23:28;;;;;;;1.60;1.50;;;17.90;88.30;;;-142.21;100.00;112049.66;5053161;28;20453;-72
2022/10/02 09:26:12;;;;;;;1.70;1.57;;;17.90;88.30;;;-142.21;100.00;112049.66;5053255;28;20486;-76
2022/10/02 09:29:41;;;;;;;3.20;2.90;;;17.90;88.20;;;-142.21;100.00;112049.66;5050718;28;20518;-75
2022/10/02 09:33:09;;;;;;;2.63;2.10;;;18.00;87.80;;;-142.21;100.00;112049.66;4991767;28;20450;-71
2022/10/02 09:36:48;;;;;;;1.60;1.50;;;17.90;87.70;;;-142.21;100.00;112049.66;4991175;28;20446;-71
2022/10/02 09:40:15;;;;;;;1.10;0.93;;;17.90;88.30;;;-142.21;100.00;112049.66;4987159;28;20465;-72
2022/10/02 09:43:29;;;;;;;1.73;1.20;;;17.90;88.00;;;-142.21;100.00;112049.66;4991468;28;20490;-72
2022/10/02 09:46:38;;;;;;;1.83;1.13;;;17.80;87.90;;;-142.21;100.00;112049.66;5033341;28;20479;-71
2022/10/02 09:50:01;;;;;;;1.37;1.23;;;17.90;88.60;;;-142.21;100.00;112049.66;5032847;28;20488;-73
2022/10/02 09:53:07;;;;;;;3.23;1.50;;;17.90;88.70;;;-142.21;100.00;112049.66;5032814;28;20816;-71
2022/10/02 09:56:28;;;;;;;2.60;2.37;;;17.90;88.50;;;-142.21;100.00;112049.66;5036456;28;20436;-75
2022/10/02 09:59:44;;;;;;;1.73;1.37;;;17.90;88.10;;;-142.21;100.00;112049.66;5041182;28;20501;-72
2022/10/02 10:02:56;;;;;;;1.40;1.30;;;17.90;87.80;;;-142.21;100.00;112049.66;5052584;28;20566;-72
2022/10/02 10:06:06;;;;;;;3.23;1.50;;;18.00;88.20;;;-142.21;100.00;112049.66;5038893;28;20521;-71
2022/10/02 10:09:08;;;;;;;1.80;1.50;;;18.00;87.80;;;-142.21;100.00;112049.66;5052269;28;20486;-73
2022/10/02 10:12:32;;;;;;;1.17;1.07;;;17.90;87.80;;;-142.21;100.00;112049.66;5053682;28;20447;-73
2022/10/02 10:16:00;;;;;;;1.30;1.20;;;18.00;88.00;;;-142.21;100.00;112049.66;5053127;28;20449;-72
2022/10/02 10:19:28;;;;;;;2.33;1.57;;;17.90;87.60;;;-142.21;100.00;112049.66;5044380;28;20467;-71
2022/10/02 10:22:39;;;;;;;3.13;2.53;;;17.90;87.70;;;-142.21;100.00;112049.66;5052388;28;20814;-73
2022/10/02 10:25:39;;;;;;;2.73;1.50;;;18.00;87.80;;;-142.21;100.00;112049.66;5032474;28;20434;-73
2022/10/02 10:28:55;;;;;;;4.30;3.37;;;17.90;87.60;;;-142.21;100.00;112049.66;5047307;28;20205;-72
2022/10/02 10:32:26;;;;;;;1.80;1.20;;;18.00;87.70;;;-142.21;100.00;112049.66;5055025;28;20501;-72
2022/10/02 10:35:46;;;;;;;1.83;1.60;;;17.90;87.80;;;-142.21;100.00;112049.66;5052159;28;20519;-71
2022/10/02 10:38:51;;;;;;;2.13;1.93;;;17.90;88.20;;;-142.21;100.00;112049.66;5052294;28;20429;-71
2022/10/02 10:42:05;;;;;;;1.60;1.40;;;18.00;88.50;;;-142.21;100.00;112049.66;5052020;28;20523;-72
2022/10/02 10:45:11;;;;;;;1.50;1.40;;;18.00;88.30;;;-142.21;100.00;112049.66;5051032;28;20444;-72
2022/10/02 10:48:30;;;;;;;2.20;1.30;;;18.10;88.30;;;-142.21;100.00;112049.66;5051933;28;20565;-73
2022/10/02 10:51:20;;;;;;;1.40;1.20;;;18.20;87.90;;;-142.21;100.00;112049.66;5050656;28;20531;-72
2022/10/02 10:54:49;;;;;;;1.30;1.13;;;18.10;87.70;;;-142.21;100.00;112049.66;5048224;28;21452;-72
2022/10/02 10:57:42;;;;;;;2.40;1.20;;;18.10;87.90;;;-142.21;100.00;112049.66;4977059;28;20557;-71
2022/10/02 11:00:20;;;;;;;2.03;1.50;;;18.20;87.90;;;-142.21;100.00;112049.66;5046089;28;20854;-72
2022/10/02 11:03:18;;;;;;;2.20;1.20;;;18.20;88.00;;;-142.21;100.00;112049.66;5050152;28;20917;-72
2022/10/02 11:06:35;;;;;;;1.47;1.00;;;18.30;88.00;;;-142.21;100.00;112049.66;5051430;28;20690;-72
2022/10/02 11:10:03;;;;;;;0.83;0.83;;;18.40;88.30;;;-142.21;100.00;112049.66;5050500;28;20460;-72
2022/10/02 11:13:18;;;;;;;0.70;0.70;;;18.50;87.80;;;-142.21;100.00;112049.66;5050965;28;20859;-73
2022/10/02 11:16:28;;;;;;;0.73;0.73;;;18.50;87.20;;;-142.21;100.00;112049.66;5008672;28;20463;-72
2022/10/02 11:19:29;;;;;;;1.40;0.97;;;18.50;86.60;;;-142.21;100.00;112049.66;5051847;28;20425;-72